Airfield :
LOGIN :

Register | Disclaimer

   EN    FR    IT 

 










Legend :    VFR   Marginal VFR   IFR   Intensive IFR   Very Intensive IFR
Visi :
Ceiling :
>= 8 km
>= 3000ft
5 to 8 km
1000 to 3000 ft
1500m to 5 km
500 to 1000 ft
800 to 1500m
200 to 500 ft
< 800m
< 200 ft
Symbols :   Thunderstorms  Fog  Heavy snow  Heavy precipitations  Wind > 20 kt
SIGMETs :     Misc.  Thunderstorms  Icing  Turbulence  Mountain Waves  Volcanic Ashes







- Airport Elevation : 1906 ft
- IATA code : INN


LOWI - Innsbruck

CURRENT METAR :
  • 291050Z 17005KT 120V230 9999 FEW035 10/M02 Q1018 NOSIG

EXPIRED METARs :
  • 291020Z 19005KT 120V240 9999 FEW030 09/M02 Q1018 NOSIG
  • 290950Z 21005KT 140V250 9999 FEW030 09/01 Q1018 NOSIG
  • 290920Z VRB02KT 9999 FEW025 09/02 Q1019 NOSIG
  • 290850Z 32003KT 270V020 9999 FEW025 07/01 Q1019 NOSIG
  • 290820Z VRB03KT 9999 FEW015 SCT035 07/01 Q1019 NOSIG

TAF TAF LOWI
Valid from the 29 at 06:00 until the 30 at 06:00 UTC


290515Z 2906/3006 VRB02KT 9999 FEW005 SCT020 BKN030 TX14/2915Z TN00/3005Z
BECMG 2907/2910 08008KT CAVOK
BECMG 2916/2918 27003KT
No reported NOTAMs for that airfield.



MET'MAP, your aeronautical weather chart ! - Copyright ORBIFLY December 2007 - Disclaimer

ORBIFLY MET'MAP TEAM :

Programming & Development : Alexandra Zaïnal
Concept & Development : Baudouin d'Aumeries
Co-Development & Prog : Marc-Olivier Méhu
Technical & hardware support : Manuel Goepfert

Contact : metmap@orbifly.com




SOURCES & CREDITS :

   NOAA